Main page
METAR-TAF:

METAR-TAF

Airports :

Oil platform

Awg-1, Netherlands

latitude: 53-29-30N, longitude: 5-56-30E, elevation: 33 m

Current weather observation

The report was made 36 minutes ago, at 11:55 UTC
Wind 15 kt from the West/Northwest
Temperature 7°C
Humidity 76%
Pressure 1020 hPa
Visibility 10 km or more
Few clouds at a height of 1400 ft
Scattered clouds at a height of 2600 ft
Broken clouds at a height of 2900 ft
light rain

METAR: EHMA 011155Z AUTO 29015KT 9999 -RA FEW014 SCT026 BKN029 07/03 Q1020 RERA REDZ

Time: 14:31 (12:31 UTC)


TAF: missing

Weather observations and forecasts of more than 4000 airports (METAR and TAF reports).

The available stations are represented by yellow and red dots on the map.

Hover mouse over dot to see the name of the station.

Then click to see weather observations and forecasts.

To change the map : click on the green buttons with a black cross to zoom in, on the green button with a dash to zoom out, or on the green arrows for adjacent maps.


METAR-TAF: